Time;durP1;ratioP1;P1;durP2;ratioP2;P2;SDS_P1;SDS_P2;PMS_P1;PMS_P2;Temp;Humidity;BMP_temperature;BMP_pressure;BME280_temperature;BME280_humidity;BME280_pressure;Samples;Min_cycle;Max_cycle;Signal;HPM_P1;HPM_P2
2023/03/22 00:09:25;;;;;;;3.08;0.95;;;9.80;18.60;;;;;;25902270;22;20020;-42
2023/03/22 00:19:28;;;;;;;6.95;2.63;;;9.80;17.50;;;;;;25896537;22;20024;-42
2023/03/22 00:29:29;;;;;;;6.80;1.77;;;9.80;15.80;;;;;;25891026;22;20019;-42
2023/03/22 00:39:30;;;;;;;4.38;1.85;;;9.80;15.60;;;;;;25893962;22;20020;-41
2023/03/22 00:49:31;;;;;;;2.78;1.10;;;9.70;16.60;;;;;;25895256;22;20012;-42
2023/03/22 00:59:37;;;;;;;2.65;0.80;;;9.60;17.80;;;;;;25900286;22;20022;-41
2023/03/22 01:09:38;;;;;;;2.33;1.08;;;9.50;18.40;;;;;;25899503;22;20037;-42
2023/03/22 01:19:39;;;;;;;2.25;1.42;;;9.50;17.60;;;;;;25888722;22;20133;-41
2023/03/22 01:29:40;;;;;;;5.07;2.08;;;9.60;15.60;;;;;;25895890;22;20015;-42
2023/03/22 01:39:41;;;;;;;2.90;1.08;;;9.70;11.70;;;;;;25897846;22;20022;-42
2023/03/22 01:49:42;;;;;;;2.25;0.98;;;9.70;9.60;;;;;;25895626;22;20018;-42
2023/03/22 01:59:46;;;;;;;4.07;0.88;;;9.80;7.90;;;;;;25898802;22;20362;-41
2023/03/22 02:09:47;;;;;;;2.53;0.68;;;9.60;8.90;;;;;;25893177;22;20022;-41
2023/03/22 02:20:23;;;;;;;1.30;0.60;;;9.60;9.80;;;;;;25891032;22;20030;-42
2023/03/22 02:30:27;;;;;;;3.53;1.10;;;9.60;11.90;;;;;;25830198;22;20026;-42
2023/03/22 02:40:34;;;;;;;5.35;1.80;;;9.60;16.00;;;;;;25905786;22;20026;-42
2023/03/22 02:50:45;;;;;;;7.53;2.37;;;9.80;19.90;;;;;;25907092;22;20895;-41
2023/03/22 03:00:49;;;;;;;4.82;1.98;;;9.90;24.40;;;;;;25905768;22;20460;-42
2023/03/22 03:10:52;;;;;;;6.40;2.42;;;9.90;28.70;;;;;;25901651;22;20034;-41
2023/03/22 03:21:06;;;;;;;3.47;1.75;;;9.90;30.00;;;;;;25900097;22;20019;-42
2023/03/22 03:31:11;;;;;;;5.80;2.72;;;9.80;37.90;;;;;;25902120;22;20015;-42
2023/03/22 03:41:20;;;;;;;4.80;2.67;;;9.80;45.70;;;;;;25892589;22;20143;-42
2023/03/22 03:51:21;;;;;;;6.00;3.05;;;9.80;55.50;;;;;;25892560;22;20016;-42
2023/03/22 04:01:22;;;;;;;9.38;3.45;;;9.80;60.20;;;;;;25891578;22;20480;-42
2023/03/22 04:11:24;;;;;;;10.77;4.03;;;9.80;65.10;;;;;;25897628;22;20536;-42
2023/03/22 04:21:25;;;;;;;6.03;2.85;;;9.90;66.90;;;;;;25895582;22;20027;-42
2023/03/22 04:31:26;;;;;;;7.95;4.18;;;9.90;64.50;;;;;;25899575;22;20026;-41
2023/03/22 04:41:27;;;;;;;5.28;2.78;;;10.00;58.90;;;;;;25898303;22;20750;-42
2023/03/22 04:51:29;;;;;;;5.38;2.25;;;10.10;52.90;;;;;;25892355;22;20158;-42
2023/03/22 05:01:30;;;;;;;7.07;3.90;;;10.20;46.10;;;;;;25902444;22;20012;-42
2023/03/22 05:11:31;;;;;;;5.20;2.55;;;10.20;43.80;;;;;;25892977;22;20025;-42
2023/03/22 05:21:35;;;;;;;6.38;3.38;;;10.20;41.50;;;;;;25889747;22;20457;-42
2023/03/22 05:31:36;;;;;;;6.65;2.75;;;10.20;35.70;;;;;;25896918;22;20365;-42
2023/03/22 05:41:37;;;;;;;4.25;2.10;;;10.10;35.20;;;;;;25895670;22;20015;-42
2023/03/22 05:51:40;;;;;;;4.60;2.30;;;10.10;35.60;;;;;;25892351;22;20012;-42
2023/03/22 06:01:41;;;;;;;7.18;2.67;;;10.20;30.20;;;;;;25894179;22;20011;-42
2023/03/22 06:11:43;;;;;;;6.07;1.38;;;10.10;28.00;;;;;;25865223;22;20495;-41
2023/03/22 06:21:44;;;;;;;4.10;1.52;;;10.20;25.50;;;;;;25902290;22;20089;-42
2023/03/22 06:31:46;;;;;;;10.00;3.13;;;10.20;24.20;;;;;;25898495;22;20222;-41
2023/03/22 06:41:48;;;;;;;6.93;2.13;;;10.40;19.50;;;;;;25908007;22;20034;-42
2023/03/22 06:51:49;;;;;;;5.72;2.10;;;10.60;14.80;;;;;;25893016;22;20750;-42
2023/03/22 07:01:50;;;;;;;5.07;0.90;;;10.60;12.90;;;;;;25898211;22;20016;-42
2023/03/22 07:11:51;;;;;;;5.50;1.98;;;10.50;10.80;;;;;;25890686;22;20022;-41
2023/03/22 07:21:52;;;;;;;2.28;0.90;;;10.50;11.50;;;;;;25901804;22;20020;-41
2023/03/22 07:31:53;;;;;;;2.75;1.38;;;10.70;8.10;;;;;;25912264;22;20011;-42
2023/03/22 07:41:55;;;;;;;4.95;0.75;;;10.90;7.10;;;;;;25913821;22;20012;-42
2023/03/22 07:51:56;;;;;;;12.75;2.17;;;10.90;5.20;;;;;;25906675;22;20015;-41
2023/03/22 08:01:57;;;;;;;10.30;1.17;;;11.30;2.20;;;;;;25913451;22;20090;-42
2023/03/22 08:11:58;;;;;;;4.32;0.85;;;11.30;1.00;;;;;;25919795;22;20202;-43
2023/03/22 08:22:00;;;;;;;7.80;1.95;;;11.40;1.00;;;;;;25912853;22;20027;-42
2023/03/22 08:32:02;;;;;;;2.33;1.20;;;11.40;1.00;;;;;;25916718;22;20038;-43
2023/03/22 08:42:04;;;;;;;5.57;1.20;;;11.40;2.70;;;;;;25909777;22;20025;-42
2023/03/22 08:52:07;;;;;;;5.05;1.38;;;11.40;1.00;;;;;;25915928;22;20345;-43
2023/03/22 09:02:08;;;;;;;3.70;1.42;;;11.20;2.80;;;;;;25908860;22;20011;-42
2023/03/22 09:12:09;;;;;;;3.58;1.92;;;11.00;6.60;;;;;;25886226;22;20022;-42
2023/03/22 09:22:11;;;;;;;2.15;0.82;;;10.90;10.20;;;;;;25908284;22;20051;-42
2023/03/22 09:32:12;;;;;;;2.22;1.10;;;10.90;17.20;;;;;;25900055;22;20350;-42
2023/03/22 09:42:47;;;;;;;2.65;1.08;;;10.70;25.30;;;;;;25908284;22;20239;-42
2023/03/22 09:52:49;;;;;;;4.68;1.17;;;10.50;37.30;;;;;;25896289;22;21606;-41
2023/03/22 10:03:00;;;;;;;2.65;0.90;;;10.50;46.10;;;;;;25911322;22;20011;-42
2023/03/22 10:13:15;;;;;;;1.67;1.10;;;10.40;64.20;;;;;;25911217;22;20011;-42
2023/03/22 10:23:50;;;;;;;3.88;1.70;;;10.50;75.40;;;;;;25907542;22;20352;-41
2023/03/22 10:34:01;;;;;;;7.20;1.75;;;10.40;87.00;;;;;;25886747;22;21382;-41
2023/03/22 10:44:05;;;;;;;4.28;1.58;;;10.40;99.90;;;;;;25903724;22;20376;-41
2023/03/22 10:54:12;;;;;;;4.35;1.35;;;10.30;99.90;;;;;;25913297;22;20007;-41
2023/03/22 11:04:15;;;;;;;4.00;1.47;;;10.30;99.90;;;;;;25923746;22;20503;-41
2023/03/22 11:14:25;;;;;;;5.22;1.73;;;10.40;99.90;;;;;;25912835;22;21001;-41
2023/03/22 11:24:29;;;;;;;4.97;1.65;;;10.50;99.90;;;;;;25918289;22;20034;-43
2023/03/22 11:34:31;;;;;;;2.72;1.27;;;10.70;99.30;;;;;;25921164;22;20016;-41
2023/03/22 11:44:34;;;;;;;2.55;1.25;;;10.80;76.40;;;;;;25903334;22;20091;-42
2023/03/22 11:54:36;;;;;;;2.33;0.85;;;10.90;64.10;;;;;;25922605;22;20094;-42
2023/03/22 12:04:40;;;;;;;2.00;0.75;;;11.00;52.00;;;;;;25910470;22;20022;-41
2023/03/22 12:14:53;;;;;;;2.70;0.85;;;11.00;40.30;;;;;;25917949;22;20408;-41
2023/03/22 12:24:54;;;;;;;4.05;0.85;;;11.10;38.30;;;;;;25906511;22;20416;-42
2023/03/22 12:34:55;;;;;;;2.20;0.75;;;11.10;38.20;;;;;;25905517;22;20015;-42
2023/03/22 12:45:05;;;;;;;2.67;1.33;;;11.20;35.50;;;;;;25895591;22;20015;-42
2023/03/22 12:55:09;;;;;;;2.50;0.88;;;11.30;35.00;;;;;;25915635;22;20038;-42
2023/03/22 13:05:10;;;;;;;2.10;0.90;;;11.30;40.50;;;;;;25911815;22;20026;-41
2023/03/22 13:15:30;;;;;;;2.80;1.10;;;11.40;36.30;;;;;;25914898;22;20026;-42
2023/03/22 13:25:37;;;;;;;3.63;1.38;;;11.70;27.50;;;;;;25911911;22;20027;-42
2023/03/22 13:35:51;;;;;;;3.03;1.52;;;11.80;23.60;;;;;;25905675;22;20014;-42
2023/03/22 13:46:03;;;;;;;9.05;1.75;;;11.90;21.40;;;;;;25909994;22;20512;-42
2023/03/22 13:56:05;;;;;;;3.85;1.48;;;11.90;21.90;;;;;;25912025;22;20016;-42
2023/03/22 14:06:17;;;;;;;3.35;1.30;;;11.90;23.60;;;;;;25906720;22;20471;-41
2023/03/22 14:16:59;;;;;;;2.10;1.15;;;12.00;24.70;;;;;;25906318;22;21556;-42
2023/03/22 14:27:00;;;;;;;2.50;1.48;;;12.00;24.10;;;;;;25912420;22;20544;-42
2023/03/22 14:37:04;;;;;;;2.75;1.17;;;12.10;21.50;;;;;;25919239;22;20007;-42
2023/03/22 14:47:14;;;;;;;2.40;1.30;;;12.10;22.40;;;;;;25918884;22;20082;-42
2023/03/22 14:57:16;;;;;;;4.72;1.23;;;12.10;23.70;;;;;;25928905;22;20108;-42
2023/03/22 15:07:19;;;;;;;4.63;1.80;;;12.10;25.60;;;;;;25896105;22;20925;-42
2023/03/22 15:17:21;;;;;;;2.50;1.63;;;12.00;31.30;;;;;;25914449;22;20099;-42
2023/03/22 15:27:22;;;;;;;3.70;1.88;;;11.90;43.30;;;;;;25802046;23;20532;-42
2023/03/22 15:37:31;;;;;;;5.53;2.70;;;11.90;59.80;;;;;;25784270;22;20496;-41
2023/03/22 15:47:49;;;;;;;3.88;1.75;;;11.70;99.90;;;;;;25781634;23;20020;-41
2023/03/22 15:57:55;;;;;;;6.60;2.20;;;11.50;99.90;;;;;;25784048;22;20525;-41
2023/03/22 16:07:57;;;;;;;6.40;3.25;;;11.50;99.90;;;;;;25787512;23;20023;-40
2023/03/22 16:17:59;;;;;;;8.32;4.50;;;11.40;99.90;;;;;;25791291;23;20070;-40
2023/03/22 16:28:00;;;;;;;4.78;2.78;;;11.30;99.90;;;;;;25788916;23;20390;-40
2023/03/22 16:38:01;;;;;;;6.22;3.20;;;11.10;99.90;;;;;;25776803;22;20012;-41
2023/03/22 16:48:02;;;;;;;4.07;2.35;;;11.20;99.90;;;;;;25787839;23;20091;-40
2023/03/22 16:58:03;;;;;;;3.65;1.58;;;11.20;99.90;;;;;;25799717;23;20012;-40
2023/03/22 17:08:15;;;;;;;3.30;1.70;;;11.10;99.90;;;;;;25798250;23;20100;-40
2023/03/22 17:18:16;;;;;;;5.78;2.35;;;11.10;99.90;;;;;;25792760;23;20270;-41
2023/03/22 17:28:21;;;;;;;7.40;2.00;;;11.20;99.90;;;;;;25784856;23;20023;-40
2023/03/22 17:38:22;;;;;;;6.13;3.03;;;11.20;99.90;;;;;;25789564;22;20581;-41
2023/03/22 17:48:25;;;;;;;4.18;2.10;;;11.30;99.90;;;;;;25777515;23;20022;-41
2023/03/22 17:58:27;;;;;;;4.13;1.88;;;11.30;99.90;;;;;;25779424;23;20064;-40
2023/03/22 18:08:28;;;;;;;6.05;3.08;;;11.30;99.90;;;;;;25784457;23;20046;-40
2023/03/22 18:18:32;;;;;;;4.07;2.58;;;11.30;99.90;;;;;;25782893;23;20453;-41
2023/03/22 18:28:34;;;;;;;4.03;2.95;;;11.30;99.90;;;;;;25784141;23;20026;-40
2023/03/22 18:38:36;;;;;;;7.57;4.43;;;11.30;99.90;;;;;;25787420;22;20016;-40
2023/03/22 18:48:38;;;;;;;6.35;3.08;;;11.20;99.90;;;;;;25784866;23;20030;-40
2023/03/22 18:58:39;;;;;;;7.00;3.00;;;11.30;99.90;;;;;;25785514;23;20012;-41
2023/03/22 19:08:40;;;;;;;7.07;4.63;;;11.30;99.90;;;;;;25784102;23;20051;-40
2023/03/22 19:18:43;;;;;;;5.35;3.85;;;11.30;99.90;;;;;;25784557;23;20024;-40
2023/03/22 19:28:44;;;;;;;8.82;4.15;;;11.30;99.90;;;;;;25787388;23;20252;-40
2023/03/22 19:38:45;;;;;;;8.05;3.88;;;11.20;99.90;;;;;;25789296;22;20008;-40
2023/03/22 19:48:49;;;;;;;9.00;3.55;;;11.20;99.90;;;;;;25787305;23;20018;-40
2023/03/22 19:58:51;;;;;;;8.68;4.78;;;11.20;99.90;;;;;;25783306;23;20571;-40
2023/03/22 20:08:52;;;;;;;10.32;4.10;;;11.10;99.90;;;;;;25784676;23;20024;-40
2023/03/22 20:18:53;;;;;;;11.98;4.72;;;11.20;99.90;;;;;;25780545;23;20022;-40
2023/03/22 20:28:55;;;;;;;8.02;3.25;;;11.20;99.90;;;;;;25788932;22;20045;-40
2023/03/22 20:38:56;;;;;;;8.57;3.75;;;11.20;99.90;;;;;;25783516;22;20014;-40
2023/03/22 20:48:57;;;;;;;5.25;3.25;;;11.20;99.90;;;;;;25786944;23;20218;-40
2023/03/22 20:59:00;;;;;;;8.45;4.93;;;11.20;99.90;;;;;;25787611;23;20083;-40
2023/03/22 21:09:01;;;;;;;7.35;3.97;;;11.20;99.90;;;;;;25789197;22;20020;-40
2023/03/22 21:19:02;;;;;;;6.10;3.78;;;11.30;99.90;;;;;;25782701;22;20053;-40
2023/03/22 21:29:05;;;;;;;10.77;3.47;;;11.40;99.90;;;;;;25791881;23;20016;-40
2023/03/22 21:39:06;;;;;;;6.10;2.63;;;11.60;99.90;;;;;;25796921;22;20110;-41
2023/03/22 21:49:08;;;;;;;5.40;3.00;;;11.60;99.90;;;;;;25788560;23;20042;-40
2023/03/22 21:59:10;;;;;;;8.02;3.55;;;11.60;99.90;;;;;;25787328;22;20008;-40
2023/03/22 22:09:12;;;;;;;31.05;5.38;;;11.70;99.90;;;;;;25782382;22;20458;-40
2023/03/22 22:19:13;;;;;;;5.38;3.20;;;11.80;96.80;;;;;;25784481;22;20035;-40
2023/03/22 22:29:14;;;;;;;4.38;2.90;;;11.90;92.70;;;;;;25783025;23;20024;-41
2023/03/22 22:39:15;;;;;;;7.80;3.28;;;11.70;99.90;;;;;;25781820;22;20070;-41
2023/03/22 22:49:16;;;;;;;6.97;3.03;;;11.70;99.90;;;;;;25763974;23;20103;-41
2023/03/22 22:59:17;;;;;;;5.70;2.38;;;11.80;97.20;;;;;;25806281;23;20083;-41
2023/03/22 23:09:19;;;;;;;3.35;1.65;;;11.90;77.80;;;;;;25806478;23;20130;-41
2023/03/22 23:19:25;;;;;;;2.97;1.67;;;12.10;60.30;;;;;;25791457;23;20076;-41
2023/03/22 23:29:26;;;;;;;3.83;1.42;;;12.10;48.70;;;;;;25784477;22;20517;-41
2023/03/22 23:39:27;;;;;;;2.42;1.20;;;12.10;44.50;;;;;;25789485;22;20313;-41
2023/03/22 23:49:28;;;;;;;3.83;1.80;;;12.20;42.50;;;;;;25788619;22;20044;-41
2023/03/22 23:59:30;;;;;;;3.65;1.42;;;12.20;34.80;;;;;;25796483;23;20468;-41
